createdAt,value
2018-06-09T00:35:48.518Z,81.80
2018-06-09T00:38:16.214Z,7.12
2018-06-09T00:40:44.058Z,63.53
2018-06-09T00:43:11.523Z,127.43
2018-06-09T00:45:38.966Z,476.25
2018-06-09T00:48:06.391Z,298.10
2018-06-09T00:50:34.155Z,26.97
2018-06-09T00:53:01.578Z,233.00
2018-06-09T00:55:29.038Z,7.30
2018-06-09T00:57:56.486Z,31.53
2018-06-09T01:00:23.938Z,9.97
2018-06-09T01:02:51.394Z,20.67
2018-06-09T01:05:18.837Z,10.67
2018-06-09T01:07:46.286Z,12.40
2018-06-09T01:10:13.731Z,364.67
2018-06-09T01:12:42.790Z,24.72
2018-06-09T01:15:10.588Z,18.73
2018-06-09T01:17:40.096Z,12.53
2018-06-09T01:20:07.586Z,10.20
2018-06-09T01:22:35.006Z,101.23
2018-06-09T01:25:02.482Z,174.90
2018-06-09T01:27:29.949Z,12.90
2018-06-09T01:29:57.457Z,78.53
2018-06-09T01:32:24.886Z,277.27
2018-06-09T01:34:52.306Z,7.27
2018-06-09T01:37:19.782Z,6.10
2018-06-09T01:39:47.222Z,444.03
2018-06-09T01:42:14.994Z,477.05
2018-06-09T01:44:42.705Z,12.97
2018-06-09T01:47:10.126Z,10.10
2018-06-09T01:49:37.611Z,8.27
2018-06-09T01:52:05.050Z,6.63
2018-06-09T01:54:32.527Z,13.33
2018-06-09T01:56:59.954Z,8.30
2018-06-09T01:59:27.454Z,16.13
2018-06-09T02:01:54.910Z,12.53
2018-06-09T02:04:22.406Z,12.50
2018-06-09T02:06:49.922Z,38.97
2018-06-09T02:09:17.348Z,10.20
2018-06-09T02:11:44.848Z,19.37
2018-06-09T02:14:12.339Z,9.13
2018-06-09T02:16:39.768Z,13.23
2018-06-09T02:19:07.238Z,8.77
2018-06-09T02:21:34.683Z,8.53
2018-06-09T02:24:02.153Z,9.07
2018-06-09T02:26:29.578Z,190.50
2018-06-09T02:28:57.063Z,23.00
2018-06-09T02:31:24.491Z,68.17
2018-06-09T02:33:51.930Z,259.17
2018-06-09T02:36:19.391Z,326.80
2018-06-09T02:38:46.862Z,137.90
2018-06-09T02:41:14.302Z,40.60
2018-06-09T02:43:41.787Z,13.67
2018-06-09T02:46:09.244Z,10.30
2018-06-09T02:48:36.672Z,9.17
2018-06-09T02:51:04.159Z,12.37
2018-06-09T02:53:31.654Z,8.27
2018-06-09T02:55:59.125Z,7.93
2018-06-09T02:58:26.546Z,13.73
2018-06-09T03:00:54.018Z,11.10
2018-06-09T03:03:21.482Z,13.80
2018-06-09T03:05:48.988Z,9.67
2018-06-09T03:08:16.444Z,13.23
2018-06-09T03:10:43.923Z,10.17
2018-06-09T03:13:11.390Z,9.20
2018-06-09T03:15:38.881Z,66.27
2018-06-09T03:18:06.371Z,78.80
2018-06-09T03:20:33.806Z,125.63
2018-06-09T03:23:01.278Z,115.93
2018-06-09T03:25:28.713Z,189.37
2018-06-09T03:27:56.193Z,363.03
2018-06-09T03:30:23.633Z,20.95
2018-06-09T03:32:51.106Z,61.70
2018-06-09T03:35:18.539Z,69.17
2018-06-09T03:37:46.021Z,251.90
2018-06-09T03:40:13.446Z,285.67
2018-06-09T03:42:40.927Z,158.77
2018-06-09T03:45:08.346Z,72.97
2018-06-09T03:47:35.836Z,198.27
2018-06-09T03:50:03.271Z,109.20
2018-06-09T03:52:30.710Z,8.27
2018-06-09T03:54:58.190Z,8.10
2018-06-09T03:57:25.642Z,19.57
2018-06-09T03:59:53.106Z,7.70
2018-06-09T04:02:20.710Z,7.17
2018-06-09T04:04:48.181Z,11.80
2018-06-09T04:07:15.634Z,14.30
2018-06-09T04:09:43.102Z,9.30
2018-06-09T04:12:10.523Z,10.20
2018-06-09T04:14:37.994Z,9.00
2018-06-09T04:17:05.415Z,14.50
2018-06-09T04:19:32.907Z,49.10
2018-06-09T04:22:00.322Z,42.93
2018-06-09T04:24:27.771Z,178.97
2018-06-09T04:26:55.253Z,183.03
2018-06-09T04:29:22.703Z,74.33
2018-06-09T04:31:50.162Z,10.60
2018-06-09T04:34:17.581Z,22.67
2018-06-09T04:36:45.107Z,12.17
2018-06-09T04:39:12.531Z,63.47
2018-06-09T04:41:40.234Z,30.13
2018-06-09T04:44:07.658Z,15.27
2018-06-09T04:46:35.443Z,138.40
2018-06-09T04:49:02.866Z,23.87
2018-06-09T04:51:30.702Z,199.70
2018-06-09T04:53:58.143Z,215.57
2018-06-09T04:56:25.610Z,35.13
2018-06-09T04:58:53.082Z,32.97
2018-06-09T05:01:20.503Z,78.67
2018-06-09T05:03:47.971Z,102.07
2018-06-09T05:06:15.514Z,125.00
2018-06-09T05:08:42.974Z,105.27
2018-06-09T05:11:10.443Z,12.25
2018-06-09T05:13:37.862Z,82.87
2018-06-09T05:16:05.335Z,204.27
2018-06-09T05:18:32.771Z,334.80
2018-06-09T05:21:00.247Z,288.13
2018-06-09T05:23:27.678Z,19.67
2018-06-09T05:25:55.143Z,10.67
2018-06-09T05:28:22.562Z,82.83
2018-06-09T05:30:50.022Z,11.17
2018-06-09T05:33:17.479Z,26.53
2018-06-09T05:35:44.946Z,196.87
2018-06-09T05:38:12.642Z,205.07
2018-06-09T05:40:40.294Z,159.20
2018-06-09T05:43:07.751Z,253.03
2018-06-09T05:45:35.174Z,351.03
2018-06-09T05:48:02.623Z,106.67
2018-06-09T05:50:30.052Z,264.10
2018-06-09T05:52:57.497Z,164.17
2018-06-09T05:55:24.926Z,155.87
2018-06-09T05:57:52.397Z,85.37
2018-06-09T06:00:19.831Z,117.40
2018-06-09T06:02:47.388Z,178.70
2018-06-09T06:05:15.150Z,87.50
2018-06-09T06:07:42.571Z,250.20
2018-06-09T06:10:10.036Z,220.43
2018-06-09T06:12:37.466Z,340.10
2018-06-09T06:15:04.995Z,398.33
2018-06-09T06:17:32.413Z,517.30
2018-06-09T06:19:59.859Z,561.63
2018-06-09T06:22:27.265Z,582.00
2018-06-09T06:24:54.719Z,623.13
2018-06-09T06:27:22.151Z,50.93
2018-06-09T06:29:49.589Z,382.07
2018-06-09T06:32:17.509Z,312.10
2018-06-09T06:34:44.926Z,442.47
2018-06-09T06:37:12.342Z,608.27
2018-06-09T06:39:39.794Z,590.63
2018-06-09T06:42:07.218Z,1095.33
2018-06-09T06:44:34.691Z,1100.15
2018-06-09T06:47:02.126Z,1120.55
2018-06-09T06:49:29.591Z,1165.83
2018-06-09T06:51:57.022Z,1140.45
2018-06-09T06:54:24.470Z,1149.43
2018-06-09T06:56:51.899Z,902.83
2018-06-09T06:59:19.364Z,1180.00
2018-06-09T07:01:46.854Z,1202.55
2018-06-09T07:04:14.411Z,1226.38
2018-06-09T07:06:41.855Z,1181.63
2018-06-09T07:09:09.322Z,1168.70
2018-06-09T07:11:36.747Z,873.10
2018-06-09T07:14:04.223Z,1160.00
2018-06-09T07:16:31.757Z,1206.65
2018-06-09T07:18:59.458Z,1218.80
2018-06-09T07:21:26.886Z,1228.22
2018-06-09T07:23:54.346Z,948.13
2018-06-09T07:26:21.794Z,1175.40
2018-06-09T07:28:49.593Z,1184.55
2018-06-09T07:31:17.034Z,1192.20
2018-06-09T07:33:44.495Z,1198.60
2018-06-09T07:36:12.424Z,985.03
2018-06-09T07:38:39.913Z,1221.67
2018-06-09T07:41:07.591Z,961.47
2018-06-09T07:43:35.057Z,1213.95
2018-06-09T07:46:02.493Z,1217.92
2018-06-09T07:48:29.975Z,1232.22
2018-06-09T07:50:57.398Z,1198.10
2018-06-09T07:53:24.825Z,863.40
2018-06-09T07:55:52.374Z,1250.48
2018-06-09T07:58:19.874Z,1261.80
2018-06-09T08:00:47.365Z,1268.25
2018-06-09T08:03:14.814Z,959.90
2018-06-09T08:05:42.271Z,1224.55
2018-06-09T08:08:09.903Z,1263.78
2018-06-09T08:10:37.335Z,1277.50
2018-06-09T08:13:04.779Z,886.93
2018-06-09T08:15:32.261Z,1175.98
2018-06-09T08:17:59.722Z,1185.42
2018-06-09T08:20:27.194Z,1150.95
2018-06-09T08:22:54.638Z,1165.93
2018-06-09T08:25:22.094Z,1178.33
2018-06-09T08:27:49.542Z,1183.73
2018-06-09T08:30:17.023Z,1187.10
2018-06-09T08:32:44.762Z,1203.40
2018-06-09T08:35:12.234Z,1202.00
2018-06-09T08:37:40.111Z,1199.15
2018-06-09T08:40:07.582Z,1197.83
2018-06-09T08:42:35.024Z,1194.63
2018-06-09T08:45:02.506Z,1200.55
2018-06-09T08:47:30.265Z,1218.48
2018-06-09T08:49:57.731Z,1218.18
2018-06-09T08:52:25.214Z,1210.80
2018-06-09T08:54:52.661Z,1216.88
2018-06-09T08:57:20.117Z,925.47
2018-06-09T08:59:47.561Z,1180.85
2018-06-09T09:02:15.068Z,1204.47
2018-06-09T09:04:42.502Z,962.23
2018-06-09T09:07:09.972Z,1194.05
2018-06-09T09:09:37.562Z,1223.73
2018-06-09T09:12:05.859Z,974.93
2018-06-09T09:14:33.358Z,1211.70
2018-06-09T09:17:00.855Z,995.20
2018-06-09T09:19:28.339Z,1216.25
2018-06-09T09:21:55.814Z,1228.20
2018-06-09T09:24:23.550Z,1239.90
2018-06-09T09:26:51.063Z,1003.80
2018-06-09T09:29:20.170Z,1245.50
2018-06-09T09:31:48.897Z,1262.75
2018-06-09T09:34:16.383Z,1029.37
2018-06-09T09:36:43.823Z,1260.60
2018-06-09T09:39:11.275Z,1278.53
2018-06-09T09:41:38.709Z,1062.13
2018-06-09T09:44:06.190Z,1285.15
2018-06-09T09:46:33.614Z,1313.70
2018-06-09T09:49:01.096Z,1100.20
2018-06-09T09:51:28.522Z,1313.50
2018-06-09T09:53:56.170Z,1330.23
2018-06-09T09:56:23.614Z,1110.33
2018-06-09T09:58:51.410Z,1317.70
2018-06-09T10:01:18.866Z,1337.40
2018-06-09T10:03:46.314Z,1139.30
2018-06-09T10:06:14.032Z,1310.38
2018-06-09T10:08:41.500Z,1325.23
2018-06-09T10:11:08.922Z,1129.78
2018-06-09T10:13:36.370Z,1320.28
2018-06-09T10:16:03.906Z,1327.60
2018-06-09T10:18:31.394Z,1096.87
2018-06-09T10:20:58.830Z,1329.47
2018-06-09T10:23:26.275Z,1331.15
2018-06-09T10:25:53.689Z,1106.80
2018-06-09T10:28:21.168Z,1342.80
2018-06-09T10:30:48.599Z,1328.93
2018-06-09T10:33:16.033Z,1029.03
2018-06-09T10:35:43.471Z,1290.10
2018-06-09T10:38:10.982Z,1307.20
2018-06-09T10:40:38.429Z,1073.00
2018-06-09T10:43:05.883Z,1301.05
2018-06-09T10:45:33.335Z,1320.80
2018-06-09T10:48:00.822Z,1087.95
2018-06-09T10:50:28.299Z,1322.30
2018-06-09T10:52:55.720Z,1336.38
2018-06-09T10:55:23.178Z,1108.75
2018-06-09T10:57:50.644Z,1324.83
2018-06-09T11:00:18.090Z,1335.22
2018-06-09T11:02:45.506Z,1094.20
2018-06-09T11:05:12.957Z,1335.05
2018-06-09T11:07:40.384Z,1347.83
2018-06-09T11:10:07.942Z,1126.45
2018-06-09T11:12:35.327Z,1335.35
2018-06-09T11:15:02.774Z,1343.85
2018-06-09T11:17:30.196Z,1128.03
2018-06-09T11:19:57.654Z,1325.38
2018-06-09T11:22:25.082Z,1334.35
2018-06-09T11:24:52.526Z,1127.63
2018-06-09T11:27:19.953Z,1335.15
2018-06-09T11:29:47.405Z,1349.08
2018-06-09T11:32:14.857Z,1127.43
2018-06-09T11:34:42.322Z,1370.68
2018-06-09T11:37:09.730Z,1356.68
2018-06-09T11:39:37.186Z,1129.18
2018-06-09T11:42:05.985Z,1342.80
2018-06-09T11:44:33.447Z,1349.47
2018-06-09T11:47:01.283Z,1348.53
2018-06-09T11:49:28.706Z,1352.47
2018-06-09T11:51:56.166Z,1163.55
2018-06-09T11:54:23.593Z,1344.55
2018-06-09T11:56:51.101Z,1344.72
2018-06-09T11:59:18.570Z,1124.28
2018-06-09T12:01:46.091Z,1348.40
2018-06-09T12:04:13.498Z,1359.35
2018-06-09T12:06:41.214Z,1126.58
2018-06-09T12:09:08.686Z,1344.72
2018-06-09T12:11:36.711Z,1360.00
2018-06-09T12:14:04.178Z,1022.07
2018-06-09T12:16:31.673Z,1248.18
2018-06-09T12:18:59.091Z,1266.27
2018-06-09T12:21:26.591Z,890.60
2018-06-09T12:23:54.043Z,1245.28
2018-06-09T12:26:21.508Z,1250.33
2018-06-09T12:28:48.954Z,1262.93
2018-06-09T12:31:16.397Z,1269.98
2018-06-09T12:33:43.824Z,1280.48
2018-06-09T12:36:11.276Z,1266.70
2018-06-09T12:38:38.710Z,1261.83
2018-06-09T12:41:06.178Z,1279.03
2018-06-09T12:43:34.143Z,1244.63
2018-06-09T12:46:01.585Z,1256.10
2018-06-09T12:48:29.172Z,1248.13
2018-06-09T12:50:56.534Z,1257.13
2018-06-09T12:53:24.002Z,1259.13
2018-06-09T12:55:51.462Z,1256.15
2018-06-09T12:58:18.927Z,1262.43
2018-06-09T13:00:46.363Z,1259.88
2018-06-09T13:03:13.822Z,1266.25
2018-06-09T13:05:41.255Z,1258.03
2018-06-09T13:08:08.709Z,1249.20
2018-06-09T13:10:36.182Z,1245.88
2018-06-09T13:13:03.633Z,1251.17
2018-06-09T13:15:31.075Z,1258.90
2018-06-09T13:17:58.538Z,1255.88
2018-06-09T13:20:25.989Z,1238.05
2018-06-09T13:22:53.761Z,1212.97
2018-06-09T13:25:21.191Z,1233.33
2018-06-09T13:27:48.647Z,1222.87
2018-06-09T13:30:16.181Z,1233.60
2018-06-09T13:32:43.596Z,1224.67
2018-06-09T13:35:11.022Z,1201.00
2018-06-09T13:37:38.490Z,1196.17
2018-06-09T13:40:06.118Z,1186.13
2018-06-09T13:42:33.639Z,1164.80
2018-06-09T13:45:01.075Z,1154.37
2018-06-09T13:47:28.818Z,1131.90
2018-06-09T13:49:56.274Z,1130.23
2018-06-09T13:52:24.019Z,1129.80
2018-06-09T13:54:51.483Z,1165.48
2018-06-09T13:57:18.934Z,1127.85
2018-06-09T13:59:46.496Z,1122.13
2018-06-09T14:02:14.150Z,1121.15
2018-06-09T14:04:41.598Z,1110.98
2018-06-09T14:07:09.039Z,1127.18
2018-06-09T14:09:36.537Z,1134.30
2018-06-09T14:12:03.989Z,1130.40
2018-06-09T14:14:31.434Z,1144.57
2018-06-09T14:16:58.854Z,1126.63
2018-06-09T14:19:26.310Z,1141.05
2018-06-09T14:21:53.750Z,1134.00
2018-06-09T14:24:21.241Z,1143.85
2018-06-09T14:26:48.693Z,1147.13
2018-06-09T14:29:16.159Z,1162.33
2018-06-09T14:31:43.614Z,1181.33
2018-06-09T14:34:11.361Z,1191.50
2018-06-09T14:36:38.798Z,1194.95
2018-06-09T14:39:06.999Z,1192.83
2018-06-09T14:41:34.466Z,1228.38
2018-06-09T14:44:01.927Z,1233.98
2018-06-09T14:46:29.366Z,1200.97
2018-06-09T14:48:57.206Z,1211.10
2018-06-09T14:51:24.934Z,1228.77
2018-06-09T14:53:52.454Z,1206.50
2018-06-09T14:56:19.856Z,1205.95
2018-06-09T14:58:47.341Z,1201.60
2018-06-09T15:01:14.783Z,1205.33
2018-06-09T15:03:42.231Z,1198.23
2018-06-09T15:06:09.707Z,1200.80
2018-06-09T15:08:37.449Z,1186.50
2018-06-09T15:11:04.942Z,1194.67
2018-06-09T15:13:32.659Z,1199.53
2018-06-09T15:16:00.139Z,1195.28
2018-06-09T15:18:27.557Z,1192.90
2018-06-09T15:20:55.047Z,1173.68
2018-06-09T15:23:22.474Z,1177.90
2018-06-09T15:25:49.935Z,1168.65
2018-06-09T15:28:17.414Z,1168.10
2018-06-09T15:30:45.101Z,1200.40
2018-06-09T15:33:12.542Z,1194.83
2018-06-09T15:35:40.102Z,1192.50
2018-06-09T15:38:07.521Z,1182.78
2018-06-09T15:40:34.967Z,1173.93
2018-06-09T15:43:02.415Z,1180.93
2018-06-09T15:45:29.872Z,1172.40
2018-06-09T15:47:57.650Z,1175.40
2018-06-09T15:50:25.097Z,1175.35
2018-06-09T15:52:52.538Z,1172.23
2018-06-09T15:55:20.012Z,1168.27
2018-06-09T15:57:47.462Z,1164.60
2018-06-09T16:00:14.918Z,1158.38
2018-06-09T16:02:45.531Z,1125.10
2018-06-09T16:05:14.258Z,1147.68
2018-06-09T16:07:45.556Z,1165.10
2018-06-09T16:10:13.073Z,1128.57
2018-06-09T16:12:40.546Z,1130.55
2018-06-09T16:15:07.995Z,1133.90
2018-06-09T16:17:35.491Z,1157.72
2018-06-09T16:20:03.238Z,1148.98
2018-06-09T16:22:30.719Z,1136.73
2018-06-09T16:24:58.191Z,1114.72
2018-06-09T16:27:25.702Z,1122.60
2018-06-09T16:29:53.138Z,1119.48
2018-06-09T16:32:20.716Z,1111.85
2018-06-09T16:34:48.164Z,1116.23
2018-06-09T16:37:15.650Z,1142.85
2018-06-09T16:39:43.193Z,1111.60
2018-06-09T16:42:10.672Z,1096.65
2018-06-09T16:44:38.126Z,1085.60
2018-06-09T16:47:05.599Z,1091.27
2018-06-09T16:49:33.058Z,1112.70
2018-06-09T16:52:00.536Z,1079.67
2018-06-09T16:54:27.986Z,1093.67
2018-06-09T16:56:55.745Z,1081.27
2018-06-09T16:59:23.176Z,1080.68
2018-06-09T17:01:50.967Z,1075.20
2018-06-09T17:04:18.430Z,1073.63
2018-06-09T17:06:45.934Z,1070.25
2018-06-09T17:09:13.403Z,1078.70
2018-06-09T17:11:40.899Z,1082.23
2018-06-09T17:14:08.358Z,1060.48
2018-06-09T17:16:35.859Z,1105.70
2018-06-09T17:19:03.335Z,1066.18
2018-06-09T17:21:31.118Z,1108.20
2018-06-09T17:23:58.571Z,1066.13
2018-06-09T17:26:27.360Z,1063.03
2018-06-09T17:28:54.922Z,1088.00
2018-06-09T17:31:22.378Z,1062.25
2018-06-09T17:33:49.851Z,1062.18
2018-06-09T17:36:17.275Z,1086.95
2018-06-09T17:38:44.729Z,1051.60
2018-06-09T17:41:12.192Z,1040.20
2018-06-09T17:43:39.668Z,1068.78
2018-06-09T17:46:07.107Z,1047.53
2018-06-09T17:48:34.563Z,1046.28
2018-06-09T17:51:02.101Z,1065.75
2018-06-09T17:53:29.507Z,1042.70
2018-06-09T17:55:56.946Z,1028.58
2018-06-09T17:58:24.430Z,1061.10
2018-06-09T18:00:51.847Z,1014.95
2018-06-09T18:03:19.291Z,1023.53
2018-06-09T18:05:46.870Z,1044.10
2018-06-09T18:08:14.314Z,981.93
2018-06-09T18:10:41.763Z,997.85
2018-06-09T18:13:09.205Z,1003.30
2018-06-09T18:15:36.655Z,1004.95
2018-06-09T18:18:04.123Z,999.47
2018-06-09T18:20:31.540Z,985.43
2018-06-09T18:22:59.092Z,980.50
2018-06-09T18:25:26.504Z,963.08
2018-06-09T18:27:53.930Z,981.17
2018-06-09T18:30:21.395Z,960.88
2018-06-09T18:32:48.818Z,945.33
2018-06-09T18:35:16.274Z,961.57
2018-06-09T18:37:43.716Z,967.15
2018-06-09T18:40:11.166Z,938.05
2018-06-09T18:42:38.619Z,963.12
2018-06-09T18:45:06.059Z,950.95
2018-06-09T18:47:33.494Z,928.90
2018-06-09T18:50:00.934Z,930.78
2018-06-09T18:52:28.376Z,928.50
2018-06-09T18:54:55.842Z,909.62
2018-06-09T18:57:23.262Z,923.83
2018-06-09T18:59:50.719Z,911.55
2018-06-09T19:02:18.160Z,904.92
2018-06-09T19:04:45.625Z,909.25
2018-06-09T19:07:13.070Z,872.13
2018-06-09T19:09:45.479Z,902.73
2018-06-09T19:12:13.246Z,901.17
2018-06-09T19:14:40.701Z,903.33
2018-06-09T19:17:08.134Z,886.60
2018-06-09T19:19:35.598Z,892.35
2018-06-09T19:22:03.103Z,877.03
2018-06-09T19:24:30.514Z,907.32
2018-06-09T19:26:57.959Z,907.10
2018-06-09T19:29:25.415Z,923.55
2018-06-09T19:31:52.850Z,895.17
2018-06-09T19:34:20.307Z,934.25
2018-06-09T19:36:48.344Z,914.48
2018-06-09T19:39:15.788Z,920.83
2018-06-09T19:41:43.251Z,897.53
2018-06-09T19:44:10.686Z,860.60
2018-06-09T19:46:38.133Z,921.50
2018-06-09T19:49:05.555Z,878.45
2018-06-09T19:51:33.014Z,883.25
2018-06-09T19:54:00.463Z,859.25
2018-06-09T19:56:27.914Z,868.50
2018-06-09T19:58:55.353Z,850.90
2018-06-09T20:01:22.810Z,842.05
2018-06-09T20:03:50.248Z,851.92
2018-06-09T20:06:17.761Z,793.00
2018-06-09T20:08:45.222Z,823.98
2018-06-09T20:11:12.683Z,838.70
2018-06-09T20:13:40.143Z,821.08
2018-06-09T20:16:07.683Z,834.88
2018-06-09T20:18:35.110Z,810.45
2018-06-09T20:21:02.567Z,796.35
2018-06-09T20:23:29.999Z,834.33
2018-06-09T20:25:57.551Z,816.42
2018-06-09T20:28:24.986Z,800.55
2018-06-09T20:30:52.509Z,845.45
2018-06-09T20:33:19.958Z,784.50
2018-06-09T20:35:47.427Z,836.40
2018-06-09T20:38:14.874Z,802.40
2018-06-09T20:40:42.590Z,805.98
2018-06-09T20:43:10.668Z,836.73
2018-06-09T20:45:38.118Z,815.55
2018-06-09T20:48:05.574Z,792.72
2018-06-09T20:50:33.022Z,787.83
2018-06-09T20:53:00.503Z,745.40
2018-06-09T20:55:27.986Z,751.80
2018-06-09T20:57:55.450Z,727.58
2018-06-09T21:00:22.893Z,705.60
2018-06-09T21:02:50.357Z,717.55
2018-06-09T21:05:17.802Z,716.77
2018-06-09T21:07:45.275Z,680.70
2018-06-09T21:10:12.746Z,676.17
2018-06-09T21:12:40.218Z,673.27
2018-06-09T21:15:07.682Z,678.77
2018-06-09T21:17:35.155Z,671.60
2018-06-09T21:20:02.652Z,800.20
2018-06-09T21:35:06.226Z,576.67
2018-06-09T21:40:13.100Z,503.40
2018-06-09T21:42:48.699Z,497.10
2018-06-09T21:45:21.754Z,509.60
2018-06-09T21:47:49.233Z,506.57
2018-06-09T21:50:16.662Z,509.27
2018-06-09T21:52:44.145Z,510.07
2018-06-09T21:55:11.665Z,509.67
2018-06-09T21:57:39.443Z,509.63
2018-06-09T22:00:07.429Z,507.75
2018-06-09T22:02:35.051Z,506.82
2018-06-09T22:05:02.510Z,510.55
2018-06-09T22:07:30.332Z,500.90
2018-06-09T22:09:57.818Z,503.90
2018-06-09T22:12:25.279Z,507.03
2018-06-09T22:14:52.798Z,511.47
2018-06-09T22:17:20.570Z,511.87
2018-06-09T22:19:48.027Z,526.98
2018-06-09T22:22:15.458Z,527.45
2018-06-09T22:24:42.906Z,521.85
2018-06-09T22:27:10.651Z,509.05
2018-06-09T22:29:38.110Z,509.77
2018-06-09T22:32:05.557Z,508.35
2018-06-09T22:34:32.999Z,506.57
2018-06-09T22:37:00.463Z,514.23
2018-06-09T22:39:27.924Z,510.95
2018-06-09T22:41:55.383Z,517.67
2018-06-09T22:44:23.080Z,510.20
2018-06-09T22:46:50.542Z,502.15
2018-06-09T22:49:18.040Z,504.93
2018-06-09T22:51:45.509Z,512.25
2018-06-09T22:54:12.985Z,499.80
2018-06-09T22:56:40.433Z,506.00
2018-06-09T22:59:07.909Z,503.90
2018-06-09T23:01:35.363Z,509.13
2018-06-09T23:04:02.846Z,508.95
2018-06-09T23:06:30.367Z,511.80
2018-06-09T23:08:57.850Z,514.32
2018-06-09T23:11:25.269Z,507.98
2018-06-09T23:13:52.779Z,507.38
2018-06-09T23:16:20.230Z,503.82
2018-06-09T23:18:47.682Z,505.52
2018-06-09T23:21:15.149Z,511.02
2018-06-09T23:23:42.894Z,511.82
2018-06-09T23:26:10.339Z,507.27
2018-06-09T23:28:37.766Z,507.62
2018-06-09T23:31:05.227Z,505.87
2018-06-09T23:33:32.667Z,503.80
2018-06-09T23:36:00.121Z,504.98
2018-06-09T23:38:27.559Z,503.02
2018-06-09T23:40:55.029Z,505.63
2018-06-09T23:43:22.756Z,502.20
2018-06-09T23:45:50.539Z,512.70
2018-06-09T23:48:18.281Z,501.25
2018-06-09T23:50:45.750Z,504.95
2018-06-09T23:53:13.183Z,504.53
2018-06-09T23:55:40.646Z,502.35
2018-06-09T23:58:08.075Z,516.10
